createdAt,value
2023-04-28T00:01:41.936Z,98782.63
2023-04-28T00:04:09.328Z,98784.31
2023-04-28T00:06:37.151Z,98762.97
2023-04-28T00:09:04.050Z,98773.19
2023-04-28T00:11:30.893Z,98778.38
2023-04-28T00:13:57.646Z,98771.41
2023-04-28T00:16:24.537Z,98758.69
2023-04-28T00:18:52.013Z,98762.69
2023-04-28T00:21:18.970Z,98763.53
2023-04-28T00:23:45.863Z,98756.66
2023-04-28T00:26:12.736Z,98741.91
2023-04-28T00:28:39.684Z,98746.25
2023-04-28T00:31:14.497Z,98753.16
2023-04-28T00:33:42.141Z,98745.34
2023-04-28T00:36:09.698Z,98731.81
2023-04-28T00:38:36.841Z,98733.88
2023-04-28T00:41:04.040Z,98739.06
2023-04-28T00:43:31.041Z,98737.38
2023-04-28T00:45:58.085Z,98741.06
2023-04-28T00:48:24.972Z,98734.03
2023-04-28T00:50:51.934Z,98729.75
2023-04-28T00:53:18.725Z,98724.56
2023-04-28T00:55:47.124Z,98715.38
2023-04-28T00:58:14.037Z,98731.50
2023-04-28T01:00:40.807Z,98728.44
2023-04-28T01:03:08.123Z,98729.66
2023-04-28T01:05:35.860Z,98726.56
2023-04-28T01:08:03.033Z,98718.69
2023-04-28T01:10:29.923Z,98716.75
2023-04-28T01:12:56.719Z,98716.66
2023-04-28T01:15:23.533Z,98706.28
2023-04-28T01:17:50.836Z,98698.38
2023-04-28T01:20:17.869Z,98709.63
2023-04-28T01:22:44.665Z,98703.41
2023-04-28T01:25:11.465Z,98703.41
2023-04-28T01:28:00.374Z,98704.22
2023-04-28T01:30:27.182Z,98710.28
2023-04-28T01:32:54.047Z,98704.88
2023-04-28T01:35:20.801Z,98693.59
2023-04-28T01:37:47.731Z,98701.38
2023-04-28T01:40:14.550Z,98698.03
2023-04-28T01:42:41.342Z,98696.28
2023-04-28T01:45:09.134Z,98695.25
2023-04-28T01:47:35.986Z,98694.41
2023-04-28T01:50:03.013Z,98692.66
2023-04-28T01:52:29.800Z,98693.19
2023-04-28T01:54:56.930Z,98685.94
2023-04-28T01:57:23.834Z,98684.19
2023-04-28T01:59:50.752Z,98685.78
2023-04-28T02:02:17.600Z,98683.09
2023-04-28T02:04:44.471Z,98665.72
2023-04-28T02:07:11.333Z,98674.38
2023-04-28T02:09:38.097Z,98678.72
2023-04-28T02:12:04.970Z,98674.38
2023-04-28T02:14:34.602Z,98682.16
2023-04-28T02:17:03.199Z,98665.28
2023-04-28T02:19:30.031Z,98670.00
2023-04-28T02:21:56.860Z,98665.81
2023-04-28T02:24:23.736Z,98651.09
2023-04-28T02:26:50.540Z,98642.63
2023-04-28T02:29:17.333Z,98654.53
2023-04-28T02:31:44.165Z,98662.31
2023-04-28T02:34:11.141Z,98663.13
2023-04-28T02:36:39.251Z,98670.00
2023-04-28T02:39:06.082Z,98657.13
2023-04-28T02:41:34.576Z,98652.13
2023-04-28T02:44:01.380Z,98656.19
2023-04-28T02:46:28.392Z,98648.50
2023-04-28T02:48:55.207Z,98644.03
2023-04-28T02:51:22.018Z,98646.53
2023-04-28T02:53:48.778Z,98640.69
2023-04-28T02:56:15.560Z,98656.84
2023-04-28T02:58:42.357Z,98649.03
2023-04-28T03:01:09.425Z,98656.09
2023-04-28T03:03:36.425Z,98649.97
2023-04-28T03:06:03.370Z,98649.97
2023-04-28T03:08:30.292Z,98650.88
2023-04-28T03:10:57.058Z,98648.19
2023-04-28T03:13:24.247Z,98659.34
2023-04-28T03:15:51.139Z,98653.38
2023-04-28T03:18:18.665Z,98651.63
2023-04-28T03:20:45.474Z,98655.94
2023-04-28T03:23:12.246Z,98650.72
2023-04-28T03:25:39.200Z,98652.75
2023-04-28T03:28:06.057Z,98651.72
2023-04-28T03:30:32.910Z,98652.56
2023-04-28T03:32:59.768Z,98641.25
2023-04-28T03:35:26.953Z,98633.44
2023-04-28T03:37:53.754Z,98637.63
2023-04-28T03:40:20.642Z,98637.25
2023-04-28T03:42:47.812Z,98636.34
2023-04-28T03:45:14.653Z,98645.69
2023-04-28T03:47:41.468Z,98629.47
2023-04-28T03:50:08.677Z,98637.75
2023-04-28T03:52:35.446Z,98628.25
2023-04-28T03:55:02.236Z,98629.19
2023-04-28T03:57:29.047Z,98637.00
2023-04-28T03:59:55.927Z,98638.66
2023-04-28T04:02:22.796Z,98629.19
2023-04-28T04:04:49.956Z,98632.72
2023-04-28T04:07:17.014Z,98636.16
2023-04-28T04:09:43.805Z,98631.78
2023-04-28T04:12:10.602Z,98626.97
2023-04-28T04:14:37.399Z,98626.69
2023-04-28T04:17:04.172Z,98624.00
2023-04-28T04:19:31.077Z,98629.19
2023-04-28T04:21:57.855Z,98626.59
2023-04-28T04:24:24.694Z,98624.81
2023-04-28T04:26:51.506Z,98622.31
2023-04-28T04:29:18.348Z,98620.66
2023-04-28T04:31:48.125Z,98612.13
2023-04-28T04:34:15.174Z,98618.81
2023-04-28T04:36:42.210Z,98575.97
2023-04-28T04:39:09.606Z,98608.50
2023-04-28T04:41:36.463Z,98611.94
2023-04-28T04:44:04.454Z,98616.22
2023-04-28T04:46:31.866Z,98616.22
2023-04-28T04:48:58.701Z,98626.16
2023-04-28T04:51:25.483Z,98615.28
2023-04-28T04:53:52.261Z,98625.31
2023-04-28T04:56:19.194Z,98620.09
2023-04-28T04:58:46.076Z,98634.19
2023-04-28T05:01:12.927Z,98621.59
2023-04-28T05:03:39.832Z,98622.91
2023-04-28T05:06:07.836Z,98627.69
2023-04-28T05:08:34.638Z,98633.66
2023-04-28T05:11:01.424Z,98624.47
2023-04-28T05:13:28.428Z,98634.75
2023-04-28T05:15:55.475Z,98624.38
2023-04-28T05:18:22.581Z,98621.56
2023-04-28T05:20:49.395Z,98623.25
2023-04-28T05:23:16.731Z,98613.06
2023-04-28T05:25:44.054Z,98606.13
2023-04-28T05:28:11.071Z,98623.25
2023-04-28T05:30:37.887Z,98630.75
2023-04-28T05:33:04.750Z,98634.19
2023-04-28T05:35:31.688Z,98635.84
2023-04-28T05:37:59.244Z,98632.34
2023-04-28T05:40:26.853Z,98625.66
2023-04-28T05:42:53.664Z,98634.94
2023-04-28T05:45:20.647Z,98639.28
2023-04-28T05:47:47.572Z,98635.75
2023-04-28T05:50:14.506Z,98623.06
2023-04-28T05:52:41.353Z,98626.22
2023-04-28T05:55:08.717Z,98624.38
2023-04-28T05:57:45.759Z,98620.94
2023-04-28T06:00:17.205Z,98629.59
2023-04-28T06:02:44.160Z,98629.59
2023-04-28T06:05:11.622Z,98623.53
2023-04-28T06:07:38.597Z,98623.38
2023-04-28T06:10:06.418Z,98629.38
2023-04-28T06:12:33.310Z,98625.97
2023-04-28T06:15:00.174Z,98617.56
2023-04-28T06:17:27.117Z,98619.94
2023-04-28T06:19:54.677Z,98624.28
2023-04-28T06:22:21.538Z,98626.59
2023-04-28T06:24:48.470Z,98617.13
2023-04-28T06:27:15.463Z,98630.88
2023-04-28T06:29:42.530Z,98611.47
2023-04-28T06:32:09.379Z,98629.94
2023-04-28T06:34:37.397Z,98622.88
2023-04-28T06:37:04.318Z,98612.50
2023-04-28T06:39:31.191Z,98604.25
2023-04-28T06:41:58.007Z,98608.97
2023-04-28T06:44:24.812Z,98608.97
2023-04-28T06:46:51.820Z,98602.84
2023-04-28T06:49:18.659Z,98598.59
2023-04-28T06:51:45.653Z,98601.91
2023-04-28T06:54:12.592Z,98607.00
2023-04-28T06:56:39.525Z,98599.31
2023-04-28T06:59:06.339Z,98598.28
2023-04-28T07:01:33.154Z,98593.09
2023-04-28T07:04:00.649Z,98586.13
2023-04-28T07:06:27.622Z,98581.00
2023-04-28T07:08:54.590Z,98593.84
2023-04-28T07:11:23.296Z,98598.94
2023-04-28T07:13:51.589Z,98592.03
2023-04-28T07:16:19.230Z,98584.44
2023-04-28T07:18:46.209Z,98590.19
2023-04-28T07:21:13.268Z,98580.63
2023-04-28T07:23:40.925Z,98577.94
2023-04-28T07:26:08.258Z,98587.06
2023-04-28T07:28:35.719Z,98580.47
2023-04-28T07:31:02.971Z,98579.22
2023-04-28T07:33:29.995Z,98574.09
2023-04-28T07:35:56.888Z,98565.19
2023-04-28T07:38:23.749Z,98564.06
2023-04-28T07:43:22.567Z,98566.25
2023-04-28T07:45:50.012Z,98564.41
2023-04-28T07:48:17.191Z,98569.59
2023-04-28T07:50:44.067Z,98576.66
2023-04-28T07:53:11.215Z,98567.94
2023-04-28T07:55:38.636Z,98560.84
2023-04-28T07:58:05.832Z,98574.59
2023-04-28T08:00:32.679Z,98570.03
2023-04-28T08:02:59.657Z,98569.13
2023-04-28T08:05:26.748Z,98569.84
2023-04-28T08:07:53.870Z,98570.69
2023-04-28T08:10:21.306Z,98573.19
2023-04-28T08:12:48.228Z,98581.94
2023-04-28T08:15:16.599Z,98583.56
2023-04-28T08:17:44.814Z,98589.53
2023-04-28T08:20:12.196Z,98587.31
2023-04-28T08:22:39.048Z,98591.56
2023-04-28T08:25:06.466Z,98591.47
2023-04-28T08:27:34.133Z,98579.59
2023-04-28T08:30:01.074Z,98591.28
2023-04-28T08:32:28.002Z,98592.00
2023-04-28T08:34:54.919Z,98594.81
2023-04-28T08:37:21.764Z,98571.47
2023-04-28T08:39:48.631Z,98599.81
2023-04-28T08:42:16.523Z,98601.66
2023-04-28T08:44:43.391Z,98605.00
2023-04-28T08:47:14.818Z,98611.81
2023-04-28T08:49:42.294Z,98610.63
2023-04-28T08:52:16.118Z,98626.00
2023-04-28T08:54:44.392Z,98626.31
2023-04-28T08:57:11.669Z,98628.81
2023-04-28T08:59:42.023Z,98628.16
2023-04-28T09:02:09.858Z,98632.22
2023-04-28T09:04:37.417Z,98626.22
2023-04-28T09:07:04.574Z,98638.25
2023-04-28T09:09:34.791Z,98630.47
2023-04-28T09:12:04.904Z,98634.00
2023-04-28T09:14:35.020Z,98644.09
2023-04-28T09:17:03.426Z,98645.06
2023-04-28T09:19:36.300Z,98635.22
2023-04-28T09:22:17.525Z,98648.56
2023-04-28T09:24:53.539Z,98643.47
2023-04-28T09:27:29.312Z,98646.13
2023-04-28T09:29:56.554Z,98642.50
2023-04-28T09:32:25.044Z,98634.34
2023-04-28T09:34:56.761Z,98650.41
2023-04-28T09:37:31.874Z,98647.59
2023-04-28T09:40:10.594Z,98643.97
2023-04-28T09:42:38.514Z,98654.28
2023-04-28T09:45:13.682Z,98643.78
2023-04-28T09:47:44.061Z,98641.28
2023-04-28T09:50:14.800Z,98636.28
2023-04-28T09:52:44.946Z,98635.63
2023-04-28T09:55:12.902Z,98642.50
2023-04-28T09:57:40.340Z,98646.78
2023-04-28T10:00:09.323Z,98644.09
2023-04-28T10:05:12.331Z,98635.06
2023-04-28T10:07:40.041Z,98635.13
2023-04-28T10:10:08.336Z,98635.78
2023-04-28T10:12:38.322Z,98626.13
2023-04-28T10:15:07.613Z,98630.94
2023-04-28T10:17:36.527Z,98622.94
2023-04-28T10:20:03.841Z,98614.94
2023-04-28T10:22:57.282Z,98622.25
2023-04-28T10:25:32.050Z,98626.31
2023-04-28T10:28:00.301Z,98617.47
2023-04-28T10:30:31.193Z,98627.56
2023-04-28T10:33:13.447Z,98623.00
2023-04-28T10:35:43.409Z,98621.16
2023-04-28T10:38:12.773Z,98612.31
2023-04-28T10:40:49.561Z,98607.97
2023-04-28T10:43:26.271Z,98616.50
2023-04-28T10:45:56.128Z,98615.06
2023-04-28T10:48:46.441Z,98614.84
2023-04-28T10:51:16.412Z,98611.31
2023-04-28T10:53:46.778Z,98619.22
2023-04-28T10:56:25.935Z,98604.69
2023-04-28T10:58:56.946Z,98609.50
2023-04-28T11:01:29.459Z,98613.66
2023-04-28T11:04:17.901Z,98608.44
2023-04-28T11:06:47.034Z,98607.91
2023-04-28T11:09:19.400Z,98622.63
2023-04-28T11:12:05.684Z,98607.78
2023-04-28T11:14:35.806Z,98612.91
2023-04-28T11:17:08.424Z,98601.94
2023-04-28T11:19:41.821Z,98599.84
2023-04-28T11:22:22.687Z,98607.34
2023-04-28T11:24:59.926Z,98610.97
2023-04-28T11:27:28.371Z,98604.81
2023-04-28T11:29:55.744Z,98607.59
2023-04-28T11:32:31.408Z,98603.34
2023-04-28T11:34:58.456Z,98614.81
2023-04-28T11:37:25.850Z,98608.34
2023-04-28T11:39:52.923Z,98600.22
2023-04-28T11:42:19.865Z,98602.28
2023-04-28T11:44:52.718Z,98596.84
2023-04-28T11:47:33.872Z,98599.94
2023-04-28T11:50:02.003Z,98590.63
2023-04-28T11:52:28.993Z,98592.34
2023-04-28T11:55:02.213Z,98585.56
2023-04-28T11:57:29.278Z,98584.91
2023-04-28T12:00:14.665Z,98579.97
2023-04-28T12:02:42.088Z,98583.25
2023-04-28T12:05:10.759Z,98581.88
2023-04-28T12:07:45.317Z,98580.56
2023-04-28T12:10:17.047Z,98577.22
2023-04-28T12:12:51.888Z,98583.53
2023-04-28T12:15:21.636Z,98587.69
2023-04-28T12:17:50.540Z,98578.63
2023-04-28T12:20:38.500Z,98581.72
2023-04-28T12:23:06.207Z,98584.22
2023-04-28T12:25:35.019Z,98579.47
2023-04-28T12:28:03.970Z,98574.25
2023-04-28T12:30:38.765Z,98570.22
2023-04-28T12:33:05.955Z,98574.97
2023-04-28T12:35:33.306Z,98577.03
2023-04-28T12:38:00.291Z,98574.44
2023-04-28T12:40:27.448Z,98582.28
2023-04-28T12:42:54.716Z,98585.97
2023-04-28T12:45:21.556Z,98582.38
2023-04-28T12:47:48.572Z,98571.72
2023-04-28T12:50:15.557Z,98588.53
2023-04-28T12:52:42.480Z,98577.34
2023-04-28T12:55:09.850Z,98578.31
2023-04-28T12:57:39.352Z,98580.25
2023-04-28T13:00:08.319Z,98583.13
2023-04-28T13:02:35.672Z,98571.47
2023-04-28T13:05:03.055Z,98576.34
2023-04-28T13:07:30.458Z,98580.03
2023-04-28T13:09:58.192Z,98573.50
2023-04-28T13:12:25.296Z,98569.34
2023-04-28T13:14:52.212Z,98561.16
2023-04-28T13:17:19.178Z,98561.03
2023-04-28T13:19:46.383Z,98564.22
2023-04-28T13:22:13.519Z,98563.66
2023-04-28T13:24:40.312Z,98566.63
2023-04-28T13:27:09.991Z,98546.06
2023-04-28T13:29:38.116Z,98519.66
2023-04-28T13:32:08.345Z,98519.53
2023-04-28T13:34:35.381Z,98527.97
2023-04-28T13:37:02.253Z,98537.97
2023-04-28T13:39:29.153Z,98542.84
2023-04-28T13:41:56.126Z,98539.41
2023-04-28T13:44:22.995Z,98541.88
2023-04-28T13:46:50.023Z,98529.16
2023-04-28T13:49:16.996Z,98541.88
2023-04-28T13:51:45.505Z,98543.81
2023-04-28T13:54:12.667Z,98551.81
2023-04-28T13:56:39.510Z,98546.59
2023-04-28T13:59:06.544Z,98540.44
2023-04-28T14:01:33.507Z,98537.75
2023-04-28T14:04:01.007Z,98527.72
2023-04-28T14:06:28.853Z,98524.41
2023-04-28T14:08:55.723Z,98529.16
2023-04-28T14:11:22.692Z,98527.84
2023-04-28T14:13:49.593Z,98530.13
2023-04-28T14:16:16.513Z,98526.81
2023-04-28T14:18:43.352Z,98527.38
2023-04-28T14:21:10.280Z,98539.72
2023-04-28T14:23:37.813Z,98552.19
2023-04-28T14:26:04.958Z,98538.88
2023-04-28T14:28:31.782Z,98539.59
2023-04-28T14:30:59.203Z,98535.38
2023-04-28T14:33:26.469Z,98530.38
2023-04-28T14:35:53.449Z,98527.06
2023-04-28T14:38:20.433Z,98520.19
2023-04-28T14:40:47.323Z,98517.78
2023-04-28T14:43:14.251Z,98515.97
2023-04-28T14:45:41.403Z,98492.38
2023-04-28T14:48:10.552Z,98499.03
2023-04-28T14:50:37.773Z,98492.59
2023-04-28T14:53:07.598Z,98496.78
2023-04-28T14:55:34.729Z,98506.75
2023-04-28T14:58:01.851Z,98500.19
2023-04-28T15:00:29.414Z,98522.28
2023-04-28T15:02:56.337Z,98528.72
2023-04-28T15:05:23.234Z,98530.88
2023-04-28T15:07:50.059Z,98524.44
2023-04-28T15:10:17.534Z,98519.22
2023-04-28T15:12:44.442Z,98531.56
2023-04-28T15:15:11.853Z,98529.66
2023-04-28T15:17:39.026Z,98533.59
2023-04-28T15:20:08.004Z,98531.56
2023-04-28T15:22:36.408Z,98527.28
2023-04-28T15:25:03.622Z,98530.63
2023-04-28T15:27:30.448Z,98536.31
2023-04-28T15:29:57.409Z,98534.41
2023-04-28T15:32:24.502Z,98542.25
2023-04-28T15:34:51.811Z,98532.03
2023-04-28T15:37:52.696Z,98529.44
2023-04-28T15:40:25.994Z,98526.09
2023-04-28T15:42:53.227Z,98530.13
2023-04-28T15:45:23.885Z,98530.63
2023-04-28T15:47:52.024Z,98538.69
2023-04-28T15:50:21.737Z,98540.91
2023-04-28T15:52:50.020Z,98520.50
2023-04-28T15:55:23.055Z,98512.78
2023-04-28T15:57:51.072Z,98509.69
2023-04-28T16:00:18.355Z,98512.63
2023-04-28T16:02:46.400Z,98510.97
2023-04-28T16:05:13.980Z,98509.91
2023-04-28T16:07:41.163Z,98496.47
2023-04-28T16:10:14.164Z,98502.06
2023-04-28T16:12:41.970Z,98497.19
2023-04-28T16:15:12.397Z,98485.47
2023-04-28T16:17:40.260Z,98479.63
2023-04-28T16:20:09.634Z,98474.19
2023-04-28T16:22:37.681Z,98477.38
2023-04-28T16:25:06.356Z,98482.38
2023-04-28T16:27:34.587Z,98491.63
2023-04-28T16:30:01.628Z,98493.41
2023-04-28T16:32:28.834Z,98487.59
2023-04-28T16:34:59.116Z,98489.72
2023-04-28T16:37:26.412Z,98486.84
2023-04-28T16:39:53.525Z,98496.22
2023-04-28T16:42:23.419Z,98506.91
2023-04-28T16:44:52.643Z,98511.78
2023-04-28T16:47:20.617Z,98511.06
2023-04-28T16:49:48.071Z,98509.41
2023-04-28T16:52:15.266Z,98501.69
2023-04-28T16:54:42.141Z,98503.03
2023-04-28T16:57:09.052Z,98501.00
2023-04-28T16:59:36.220Z,98496.13
2023-04-28T17:02:04.002Z,98487.56
2023-04-28T17:04:31.652Z,98491.09
2023-04-28T17:06:59.404Z,98483.63
2023-04-28T17:09:27.407Z,98497.41
2023-04-28T17:11:54.982Z,98500.13
2023-04-28T17:14:22.091Z,98497.84
2023-04-28T17:16:49.002Z,98494.31
2023-04-28T17:19:16.682Z,98490.75
2023-04-28T17:21:43.572Z,98487.41
2023-04-28T17:24:10.378Z,98485.75
2023-04-28T17:26:37.365Z,98491.94
2023-04-28T17:29:04.800Z,98500.69
2023-04-28T17:31:31.884Z,98490.63
2023-04-28T17:33:59.745Z,98485.72
2023-04-28T17:36:27.261Z,98486.22
2023-04-28T17:38:55.123Z,98483.50
2023-04-28T17:41:22.794Z,98483.03
2023-04-28T17:43:53.622Z,98481.59
2023-04-28T17:46:22.114Z,98484.31
2023-04-28T17:48:49.661Z,98495.97
2023-04-28T17:51:16.707Z,98507.47
2023-04-28T17:53:43.647Z,98492.63
2023-04-28T17:56:10.829Z,98487.78
2023-04-28T17:58:37.655Z,98490.75
2023-04-28T18:01:07.612Z,98490.63
2023-04-28T18:03:36.695Z,98486.09
2023-04-28T18:06:07.559Z,98496.53
2023-04-28T18:08:36.408Z,98500.09
2023-04-28T18:11:03.726Z,98496.75
2023-04-28T18:13:30.944Z,98462.53
2023-04-28T18:15:57.900Z,98481.78
2023-04-28T18:18:25.458Z,98494.47
2023-04-28T18:20:58.824Z,98490.44
2023-04-28T18:23:26.774Z,98511.19
2023-04-28T18:25:53.701Z,98508.81
2023-04-28T18:28:20.589Z,98515.09
2023-04-28T18:30:47.410Z,98520.53
2023-04-28T18:33:14.224Z,98520.75
2023-04-28T18:35:41.224Z,98525.25
2023-04-28T18:38:08.061Z,98537.34
2023-04-28T18:40:38.610Z,98529.63
2023-04-28T18:43:10.496Z,98533.44
2023-04-28T18:45:41.227Z,98541.44
2023-04-28T18:48:12.033Z,98547.81
2023-04-28T18:50:39.310Z,98540.19
2023-04-28T18:53:08.692Z,98536.88
2023-04-28T18:55:35.858Z,98540.75
2023-04-28T18:58:03.911Z,98545.88
2023-04-28T19:00:32.339Z,98549.50
2023-04-28T19:02:59.485Z,98547.00
2023-04-28T19:05:26.414Z,98550.56
2023-04-28T19:07:53.412Z,98543.69
2023-04-28T19:10:20.425Z,98555.28
2023-04-28T19:12:47.328Z,98557.69
2023-04-28T19:15:14.389Z,98560.50
2023-04-28T19:17:41.222Z,98559.94
2023-04-28T19:20:08.948Z,98578.91
2023-04-28T19:22:41.462Z,98573.09
2023-04-28T19:25:08.854Z,98572.59
2023-04-28T19:27:39.438Z,98571.03
2023-04-28T19:30:09.996Z,98579.91
2023-04-28T19:32:36.949Z,98574.47
2023-04-28T19:35:04.680Z,98574.34
2023-04-28T19:37:32.652Z,98588.13
2023-04-28T19:39:59.957Z,98583.97
2023-04-28T19:42:27.084Z,98586.19
2023-04-28T19:44:56.468Z,98595.44
2023-04-28T19:47:29.578Z,98592.94
2023-04-28T19:49:56.552Z,98593.06
2023-04-28T19:52:23.564Z,98595.88
2023-04-28T19:54:51.068Z,98598.38
2023-04-28T19:57:18.969Z,98591.28
2023-04-28T19:59:47.309Z,98599.91
2023-04-28T20:02:14.950Z,98596.50
2023-04-28T20:04:42.639Z,98603.38
2023-04-28T20:07:10.494Z,98602.84
2023-04-28T20:09:37.955Z,98606.09
2023-04-28T20:12:08.741Z,98613.06
2023-04-28T20:14:37.137Z,98612.56
2023-04-28T20:17:05.464Z,98608.06
2023-04-28T20:19:32.307Z,98612.78
2023-04-28T20:21:59.189Z,98611.31
2023-04-28T20:24:26.087Z,98609.44
2023-04-28T20:26:54.531Z,98603.31
2023-04-28T20:29:21.524Z,98593.41
2023-04-28T20:31:48.622Z,98608.72
2023-04-28T20:34:15.608Z,98607.16
2023-04-28T20:36:43.143Z,98606.31
2023-04-28T20:39:11.023Z,98606.53
2023-04-28T20:41:40.794Z,98603.22
2023-04-28T20:44:07.903Z,98606.75
2023-04-28T20:46:35.542Z,98599.97
2023-04-28T20:49:04.153Z,98606.25
2023-04-28T20:51:34.183Z,98596.25
2023-04-28T20:54:01.325Z,98599.38
2023-04-28T20:56:28.203Z,98608.56
2023-04-28T20:58:55.771Z,98605.41
2023-04-28T21:01:22.743Z,98613.44
2023-04-28T21:03:49.871Z,98612.59
2023-04-28T21:06:17.305Z,98622.84
2023-04-28T21:08:45.008Z,98622.84
2023-04-28T21:11:16.687Z,98617.72
2023-04-28T21:13:44.752Z,98623.34
2023-04-28T21:16:21.159Z,98630.03
2023-04-28T21:18:49.416Z,98624.09
2023-04-28T21:21:16.671Z,98622.63
2023-04-28T21:23:44.133Z,98623.03
2023-04-28T21:26:11.223Z,98642.72
2023-04-28T21:28:39.759Z,98631.50
2023-04-28T21:31:06.904Z,98631.56
2023-04-28T21:33:33.871Z,98631.78
2023-04-28T21:36:08.131Z,98632.72
2023-04-28T21:38:36.820Z,98629.28
2023-04-28T21:41:03.695Z,98625.03
2023-04-28T21:43:30.764Z,98634.59
2023-04-28T21:45:57.665Z,98632.84
2023-04-28T21:48:24.511Z,98632.22
2023-04-28T21:50:51.417Z,98627.22
2023-04-28T21:53:18.319Z,98625.94
2023-04-28T21:55:45.326Z,98628.56
2023-04-28T21:58:12.278Z,98627.50
2023-04-28T22:00:43.736Z,98621.38
2023-04-28T22:03:11.084Z,98629.09
2023-04-28T22:05:40.187Z,98625.75
2023-04-28T22:08:07.254Z,98617.69
2023-04-28T22:10:34.900Z,98627.59
2023-04-28T22:13:01.804Z,98632.94
2023-04-28T22:15:28.811Z,98631.97
2023-04-28T22:17:55.707Z,98628.44
2023-04-28T22:20:22.561Z,98627.59
2023-04-28T22:22:49.432Z,98625.00
2023-04-28T22:25:17.047Z,98629.38
2023-04-28T22:27:43.946Z,98616.78
2023-04-28T22:30:11.836Z,98618.66
2023-04-28T22:32:38.770Z,98627.09
2023-04-28T22:35:06.321Z,98632.28
2023-04-28T22:37:33.994Z,98636.56
2023-04-28T22:40:00.980Z,98633.03
2023-04-28T22:42:28.744Z,98629.84
2023-04-28T22:44:55.569Z,98631.97
2023-04-28T22:47:22.414Z,98629.28
2023-04-28T22:49:49.569Z,98624.91
2023-04-28T22:52:18.258Z,98614.75
2023-04-28T22:54:45.315Z,98632.72
2023-04-28T22:57:12.208Z,98627.56
2023-04-28T22:59:39.124Z,98634.19
2023-04-28T23:02:06.180Z,98637.66
2023-04-28T23:04:33.491Z,98625.69
2023-04-28T23:07:00.410Z,98622.88
2023-04-28T23:09:27.275Z,98625.69
2023-04-28T23:11:54.178Z,98619.53
2023-04-28T23:14:21.156Z,98625.69
2023-04-28T23:16:48.088Z,98625.22
2023-04-28T23:19:15.028Z,98629.41
2023-04-28T23:21:42.016Z,98620.88
2023-04-28T23:24:10.077Z,98622.56
2023-04-28T23:26:37.642Z,98625.22
2023-04-28T23:29:04.590Z,98621.81
2023-04-28T23:31:32.062Z,98620.34
2023-04-28T23:33:59.579Z,98623.16
2023-04-28T23:36:26.597Z,98628.34
2023-04-28T23:38:53.727Z,98624.81
2023-04-28T23:41:20.713Z,98624.91
2023-04-28T23:43:47.604Z,98629.47
2023-04-28T23:46:14.512Z,98629.78
2023-04-28T23:48:41.399Z,98623.00
2023-04-28T23:51:08.221Z,98618.53
2023-04-28T23:53:35.108Z,98618.53
2023-04-28T23:56:02.018Z,98619.66
2023-04-28T23:58:28.946Z,98614.38
